createdAt,value
2018-11-21T00:00:21.868Z,79.60
2018-11-21T00:02:51.877Z,79.50
2018-11-21T00:05:21.480Z,79.60
2018-11-21T00:07:50.170Z,79.30
2018-11-21T00:10:18.973Z,79.60
2018-11-21T00:12:50.277Z,80.10
2018-11-21T00:15:19.160Z,80.50
2018-11-21T00:17:47.878Z,80.50
2018-11-21T00:20:18.153Z,80.70
2018-11-21T00:22:47.400Z,80.70
2018-11-21T00:25:17.358Z,80.70
2018-11-21T00:27:46.609Z,81.30
2018-11-21T00:30:15.987Z,81.70
2018-11-21T00:32:45.014Z,81.70
2018-11-21T00:35:14.726Z,81.90
2018-11-21T00:37:43.213Z,82.00
2018-11-21T00:40:13.147Z,82.40
2018-11-21T00:42:46.716Z,82.70
2018-11-21T00:45:10.597Z,82.90
2018-11-21T00:47:40.636Z,82.80
2018-11-21T00:50:11.769Z,83.50
2018-11-21T00:52:40.068Z,83.40
2018-11-21T00:55:08.507Z,83.90
2018-11-21T00:57:37.003Z,83.40
2018-11-21T01:00:09.690Z,84.00
2018-11-21T01:02:41.089Z,84.20
2018-11-21T01:05:09.863Z,84.60
2018-11-21T01:07:40.038Z,84.50
2018-11-21T01:10:08.477Z,83.60
2018-11-21T01:12:38.841Z,82.90
2018-11-21T01:15:07.302Z,82.60
2018-11-21T01:17:35.636Z,82.70
2018-11-21T01:20:04.103Z,83.40
2018-11-21T01:22:33.703Z,84.00
2018-11-21T01:25:02.650Z,83.70
2018-11-21T01:27:31.312Z,83.30
2018-11-21T01:30:00.573Z,83.50
2018-11-21T01:32:28.925Z,84.00
2018-11-21T01:34:58.569Z,84.40
2018-11-21T01:37:27.151Z,84.70
2018-11-21T01:39:55.474Z,84.20
2018-11-21T01:42:24.324Z,83.30
2018-11-21T01:44:53.059Z,83.30
2018-11-21T01:47:22.410Z,83.90
2018-11-21T01:49:51.694Z,83.30
2018-11-21T01:52:20.744Z,82.70
2018-11-21T01:54:50.346Z,82.90
2018-11-21T01:57:18.649Z,82.70
2018-11-21T01:59:48.144Z,82.80
2018-11-21T02:02:16.432Z,82.90
2018-11-21T02:04:45.452Z,83.30
2018-11-21T02:07:13.702Z,83.20
2018-11-21T02:09:42.322Z,83.20
2018-11-21T02:12:10.994Z,83.90
2018-11-21T02:14:39.752Z,84.80
2018-11-21T02:17:09.232Z,85.40
2018-11-21T02:19:38.432Z,85.30
2018-11-21T02:22:06.677Z,84.80
2018-11-21T02:24:35.360Z,84.50
2018-11-21T02:27:04.489Z,84.30
2018-11-21T02:29:33.929Z,84.20
2018-11-21T02:32:02.582Z,84.00
2018-11-21T02:34:33.142Z,84.70
2018-11-21T02:37:01.560Z,85.20
2018-11-21T02:39:30.846Z,85.40
2018-11-21T02:42:00.454Z,85.50
2018-11-21T02:44:29.622Z,85.50
2018-11-21T02:46:58.020Z,86.00
2018-11-21T02:49:27.462Z,86.00
2018-11-21T02:51:55.750Z,85.50
2018-11-21T02:54:24.428Z,86.00
2018-11-21T02:57:24.379Z,86.00
2018-11-21T02:59:54.832Z,86.40
2018-11-21T03:02:23.391Z,86.10
2018-11-21T03:04:52.522Z,85.80
2018-11-21T03:07:21.500Z,85.50
2018-11-21T03:09:49.813Z,85.50
2018-11-21T03:12:18.896Z,85.40
2018-11-21T03:14:47.258Z,85.60
2018-11-21T03:17:15.905Z,85.60
2018-11-21T03:19:44.213Z,84.70
2018-11-21T03:22:12.893Z,84.60
2018-11-21T03:24:41.840Z,84.70
2018-11-21T03:27:10.572Z,84.90
2018-11-21T03:29:39.528Z,85.10
2018-11-21T03:32:07.832Z,85.40
2018-11-21T03:34:36.239Z,85.20
2018-11-21T03:37:04.895Z,85.40
2018-11-21T03:39:33.243Z,85.20
2018-11-21T03:42:02.290Z,84.90
2018-11-21T03:44:31.391Z,84.00
2018-11-21T03:47:00.832Z,83.50
2018-11-21T03:49:32.587Z,83.60
2018-11-21T03:52:02.008Z,83.60
2018-11-21T03:54:31.535Z,84.30
2018-11-21T03:57:00.862Z,85.10
2018-11-21T03:59:30.048Z,84.80
2018-11-21T04:01:58.318Z,85.30
2018-11-21T04:04:28.627Z,84.70
2018-11-21T04:06:57.279Z,84.80
2018-11-21T04:09:25.891Z,85.00
2018-11-21T04:11:54.606Z,85.30
2018-11-21T04:14:24.550Z,85.20
2018-11-21T04:16:53.558Z,85.40
2018-11-21T04:19:22.487Z,85.60
2018-11-21T04:21:51.150Z,84.60
2018-11-21T04:24:19.400Z,83.50
2018-11-21T04:26:47.750Z,83.20
2018-11-21T04:29:16.916Z,83.80
2018-11-21T04:31:45.210Z,84.50
2018-11-21T04:34:14.905Z,84.60
2018-11-21T04:36:44.141Z,84.60
2018-11-21T04:39:13.093Z,84.50
2018-11-21T04:41:42.367Z,84.00
2018-11-21T04:44:11.152Z,84.30
2018-11-21T04:46:39.532Z,84.70
2018-11-21T04:49:09.112Z,84.50
2018-11-21T04:51:38.090Z,85.00
2018-11-21T04:54:06.853Z,85.00
2018-11-21T04:56:35.569Z,84.00
2018-11-21T04:59:05.272Z,84.40
2018-11-21T05:01:34.937Z,84.70
2018-11-21T05:04:04.157Z,85.00
2018-11-21T05:06:33.564Z,84.70
2018-11-21T05:09:02.237Z,84.20
2018-11-21T05:11:30.884Z,84.60
2018-11-21T05:13:59.452Z,85.30
2018-11-21T05:16:28.401Z,85.50
2018-11-21T05:18:57.639Z,85.60
2018-11-21T05:21:27.070Z,85.40
2018-11-21T05:23:57.193Z,84.80
2018-11-21T05:26:26.408Z,84.30
2018-11-21T05:28:55.074Z,84.00
2018-11-21T05:31:24.837Z,84.40
2018-11-21T05:33:54.378Z,84.80
2018-11-21T05:36:23.749Z,84.80
2018-11-21T05:38:52.193Z,84.50
2018-11-21T05:41:21.105Z,83.50
2018-11-21T05:43:50.810Z,82.60
2018-11-21T05:46:20.031Z,82.50
2018-11-21T05:48:50.408Z,83.30
2018-11-21T05:51:19.053Z,83.70
2018-11-21T05:53:47.733Z,84.30
2018-11-21T05:56:17.862Z,84.70
2018-11-21T05:58:47.527Z,84.90
2018-11-21T06:01:16.050Z,84.90
2018-11-21T06:03:44.519Z,84.40
2018-11-21T06:06:13.136Z,84.40
2018-11-21T06:08:42.238Z,84.60
2018-11-21T06:11:11.845Z,84.70
2018-11-21T06:13:41.251Z,85.50
2018-11-21T06:16:10.535Z,85.50
2018-11-21T06:18:39.394Z,84.90
2018-11-21T06:21:11.332Z,85.10
2018-11-21T06:23:40.491Z,85.20
2018-11-21T06:26:08.925Z,84.90
2018-11-21T06:28:39.095Z,84.70
2018-11-21T06:31:08.919Z,84.80
2018-11-21T06:33:37.869Z,84.30
2018-11-21T06:36:06.427Z,83.50
2018-11-21T06:38:35.164Z,83.00
2018-11-21T06:41:04.326Z,82.50
2018-11-21T06:43:33.461Z,82.40
2018-11-21T06:46:03.213Z,82.90
2018-11-21T06:48:30.896Z,83.20
2018-11-21T06:50:59.937Z,83.30
2018-11-21T06:53:28.723Z,82.60
2018-11-21T06:55:57.890Z,82.50
2018-11-21T06:58:26.803Z,83.30
2018-11-21T07:00:56.320Z,83.30
2018-11-21T07:03:25.681Z,83.00
2018-11-21T07:05:55.576Z,83.00
2018-11-21T07:08:25.245Z,83.00
2018-11-21T07:10:54.293Z,83.30
2018-11-21T07:13:25.433Z,83.50
2018-11-21T07:15:55.149Z,83.00
2018-11-21T07:18:25.110Z,82.50
2018-11-21T07:20:54.065Z,83.00
2018-11-21T07:23:23.817Z,82.70
2018-11-21T07:25:53.519Z,83.30
2018-11-21T07:28:28.433Z,83.30
2018-11-21T07:30:56.814Z,83.90
2018-11-21T07:33:25.472Z,84.20
2018-11-21T07:35:54.692Z,83.90
2018-11-21T07:38:23.761Z,83.40
2018-11-21T07:40:52.561Z,83.20
2018-11-21T07:43:22.480Z,83.60
2018-11-21T07:45:51.212Z,83.60
2018-11-21T07:48:20.667Z,83.70
2018-11-21T07:50:51.739Z,83.20
2018-11-21T07:53:20.100Z,82.70
2018-11-21T07:55:55.145Z,82.60
2018-11-21T07:58:25.528Z,82.20
2018-11-21T08:01:03.802Z,82.20
2018-11-21T08:03:51.984Z,82.00
2018-11-21T08:06:27.034Z,81.90
2018-11-21T08:09:14.139Z,81.90
2018-11-21T08:12:14.569Z,82.20
2018-11-21T08:15:08.331Z,82.00
2018-11-21T08:17:55.732Z,81.70
2018-11-21T08:20:45.251Z,82.00
2018-11-21T08:23:33.556Z,82.40
2018-11-21T08:26:21.231Z,82.20
2018-11-21T08:28:50.080Z,83.10
2018-11-21T08:31:19.204Z,82.40
2018-11-21T08:33:48.818Z,82.90
2018-11-21T08:36:17.325Z,81.70
2018-11-21T08:38:46.667Z,82.10
2018-11-21T08:41:19.639Z,83.20
2018-11-21T08:43:50.408Z,82.00
2018-11-21T08:46:20.186Z,81.20
2018-11-21T08:48:49.530Z,81.40
2018-11-21T08:51:18.568Z,81.40
2018-11-21T08:53:49.813Z,82.10
2018-11-21T08:56:20.073Z,82.90
2018-11-21T08:58:53.214Z,83.50
2018-11-21T09:01:24.816Z,83.40
2018-11-21T09:04:00.441Z,83.30
2018-11-21T09:06:31.917Z,83.60
2018-11-21T09:09:03.257Z,83.30
2018-11-21T09:11:33.927Z,82.70
2018-11-21T09:14:04.418Z,82.10
2018-11-21T09:16:33.450Z,82.30
2018-11-21T09:19:03.582Z,82.50
2018-11-21T09:21:32.175Z,83.20
2018-11-21T09:24:01.974Z,82.70
2018-11-21T09:26:30.938Z,82.90
2018-11-21T09:29:00.018Z,83.00
2018-11-21T09:31:29.257Z,82.90
2018-11-21T09:34:04.106Z,83.40
2018-11-21T09:36:34.272Z,82.50
2018-11-21T09:39:05.367Z,82.70
2018-11-21T09:41:34.651Z,82.60
2018-11-21T09:44:03.930Z,82.70
2018-11-21T09:46:32.718Z,82.60
2018-11-21T09:49:01.629Z,83.40
2018-11-21T09:51:30.619Z,83.20
2018-11-21T09:53:59.173Z,84.30
2018-11-21T09:56:27.604Z,84.50
2018-11-21T09:58:56.339Z,84.50
2018-11-21T10:02:01.592Z,82.80
2018-11-21T10:04:30.888Z,82.70
2018-11-21T10:07:00.212Z,82.60
2018-11-21T10:09:38.341Z,82.80
2018-11-21T10:12:07.601Z,82.00
2018-11-21T10:14:37.095Z,82.30
2018-11-21T10:17:06.221Z,81.30
2018-11-21T10:19:34.555Z,81.80
2018-11-21T10:22:02.888Z,82.10
2018-11-21T10:24:31.746Z,82.10
2018-11-21T10:27:00.841Z,81.90
2018-11-21T10:29:29.504Z,81.70
2018-11-21T10:31:58.718Z,81.80
2018-11-21T10:34:27.284Z,81.50
2018-11-21T10:36:57.107Z,81.50
2018-11-21T10:39:25.360Z,81.80
2018-11-21T10:41:53.622Z,81.30
2018-11-21T10:44:22.573Z,80.60
2018-11-21T10:46:51.206Z,80.50
2018-11-21T10:49:19.734Z,81.20
2018-11-21T10:51:48.326Z,80.70
2018-11-21T10:54:16.605Z,80.20
2018-11-21T10:56:45.679Z,80.10
2018-11-21T10:59:14.395Z,80.60
2018-11-21T11:02:00.681Z,80.50
2018-11-21T11:04:57.429Z,81.50
2018-11-21T11:08:03.922Z,82.10
2018-11-21T11:10:54.890Z,81.90
2018-11-21T11:13:35.462Z,81.60
2018-11-21T11:16:28.988Z,81.90
2018-11-21T11:19:26.034Z,82.40
2018-11-21T11:22:25.891Z,81.60
2018-11-21T11:25:04.621Z,80.90
2018-11-21T11:27:55.112Z,80.80
2018-11-21T11:30:42.822Z,80.70
2018-11-21T11:33:23.226Z,80.60
2018-11-21T11:36:09.813Z,81.60
2018-11-21T11:38:51.928Z,80.60
2018-11-21T11:41:38.031Z,80.60
2018-11-21T11:44:34.551Z,81.20
2018-11-21T11:47:20.745Z,81.10
2018-11-21T11:50:08.285Z,80.70
2018-11-21T11:53:13.480Z,80.40
2018-11-21T11:56:01.367Z,80.40
2018-11-21T11:58:50.786Z,79.90
2018-11-21T12:01:38.237Z,80.30
2018-11-21T12:04:15.229Z,80.90
2018-11-21T12:07:11.118Z,80.90
2018-11-21T12:10:16.407Z,80.50
2018-11-21T12:13:02.456Z,79.50
2018-11-21T12:15:50.258Z,79.60
2018-11-21T12:18:30.499Z,80.30
2018-11-21T12:21:18.617Z,80.70
2018-11-21T12:24:04.892Z,80.90
2018-11-21T12:26:53.336Z,80.80
2018-11-21T12:29:42.056Z,80.90
2018-11-21T12:32:18.919Z,80.70
2018-11-21T12:35:12.969Z,80.10
2018-11-21T12:37:59.238Z,79.70
2018-11-21T12:41:05.701Z,80.00
2018-11-21T12:43:47.056Z,80.80
2018-11-21T12:46:34.280Z,81.10
2018-11-21T12:49:20.997Z,81.40
2018-11-21T12:52:15.957Z,82.10
2018-11-21T12:55:03.090Z,82.40
2018-11-21T12:57:57.148Z,81.80
2018-11-21T13:00:46.348Z,80.90
2018-11-21T13:03:42.679Z,81.00
2018-11-21T13:06:22.050Z,81.00
2018-11-21T13:09:12.434Z,80.90
2018-11-21T13:11:58.511Z,80.80
2018-11-21T13:14:55.981Z,81.00
2018-11-21T13:17:50.444Z,80.90
2018-11-21T13:20:51.336Z,81.30
2018-11-21T13:23:29.985Z,81.00
2018-11-21T13:26:16.145Z,80.70
2018-11-21T13:29:01.145Z,80.80
2018-11-21T13:31:50.096Z,81.20
2018-11-21T13:34:36.957Z,81.20
2018-11-21T13:37:32.041Z,81.30
2018-11-21T13:40:21.905Z,80.50
2018-11-21T13:43:12.413Z,80.40
2018-11-21T13:45:58.728Z,81.00
2018-11-21T13:48:58.095Z,81.30
2018-11-21T13:51:48.340Z,82.10
2018-11-21T13:54:38.847Z,82.40
2018-11-21T13:57:08.251Z,82.60
2018-11-21T13:59:37.075Z,82.60
2018-11-21T14:02:05.816Z,82.40
2018-11-21T14:04:35.071Z,81.90
2018-11-21T14:07:04.906Z,80.90
2018-11-21T14:09:36.589Z,80.10
2018-11-21T14:12:06.276Z,80.00
2018-11-21T14:14:35.490Z,80.30
2018-11-21T14:17:07.460Z,80.60
2018-11-21T14:19:36.009Z,81.30
2018-11-21T14:22:04.403Z,81.70
2018-11-21T14:24:33.702Z,82.00
2018-11-21T14:27:02.295Z,81.80
2018-11-21T14:29:30.899Z,81.60
2018-11-21T14:32:00.431Z,82.00
2018-11-21T14:34:29.076Z,81.80
2018-11-21T14:36:57.424Z,81.80
2018-11-21T14:39:26.838Z,81.00
2018-11-21T14:41:56.734Z,81.00
2018-11-21T14:44:25.092Z,81.00
2018-11-21T14:46:55.020Z,81.30
2018-11-21T14:49:23.881Z,80.90
2018-11-21T14:51:53.434Z,80.90
2018-11-21T14:54:23.173Z,81.50
2018-11-21T14:56:51.714Z,81.20
2018-11-21T14:59:20.346Z,81.40
2018-11-21T15:01:49.423Z,81.50
2018-11-21T15:04:18.940Z,81.10
2018-11-21T15:06:47.930Z,81.40
2018-11-21T15:09:16.898Z,82.50
2018-11-21T15:11:45.798Z,82.30
2018-11-21T15:14:15.908Z,82.30
2018-11-21T15:16:44.228Z,81.80
2018-11-21T15:19:12.931Z,82.00
2018-11-21T15:21:42.089Z,81.80
2018-11-21T15:24:11.395Z,81.90
2018-11-21T15:26:39.780Z,81.00
2018-11-21T15:29:09.883Z,81.40
2018-11-21T15:31:39.283Z,82.10
2018-11-21T15:34:07.708Z,82.50
2018-11-21T15:36:36.325Z,83.70
2018-11-21T15:39:08.722Z,82.70
2018-11-21T15:41:37.927Z,82.80
2018-11-21T15:44:06.681Z,82.80
2018-11-21T15:46:35.316Z,82.30
2018-11-21T15:49:04.429Z,81.90
2018-11-21T15:51:33.342Z,81.80
2018-11-21T15:54:02.482Z,81.60
2018-11-21T15:56:31.601Z,81.20
2018-11-21T15:59:00.205Z,81.30
2018-11-21T16:01:29.500Z,81.20
2018-11-21T16:03:59.441Z,81.30
2018-11-21T16:06:28.687Z,81.90
2018-11-21T16:08:57.155Z,82.10
2018-11-21T16:11:25.562Z,81.10
2018-11-21T16:13:54.570Z,81.10
2018-11-21T16:16:24.026Z,81.00
2018-11-21T16:18:53.710Z,81.20
2018-11-21T16:21:22.404Z,81.00
2018-11-21T16:23:51.211Z,81.60
2018-11-21T16:26:19.533Z,82.30
2018-11-21T16:28:48.217Z,82.40
2018-11-21T16:31:16.601Z,81.20
2018-11-21T16:33:46.778Z,81.20
2018-11-21T16:36:15.181Z,81.10
2018-11-21T16:38:45.143Z,81.20
2018-11-21T16:41:14.130Z,81.00
2018-11-21T16:43:42.981Z,82.10
2018-11-21T16:46:11.905Z,82.00
2018-11-21T16:48:40.261Z,82.00
2018-11-21T16:51:08.639Z,82.10
2018-11-21T16:53:38.376Z,82.30
2018-11-21T16:56:09.131Z,81.60
2018-11-21T16:58:37.484Z,81.10
2018-11-21T17:01:05.970Z,82.60
2018-11-21T17:03:35.162Z,83.00
2018-11-21T17:06:04.201Z,83.20
2018-11-21T17:08:32.529Z,82.80
2018-11-21T17:11:00.858Z,82.60
2018-11-21T17:13:29.134Z,82.90
2018-11-21T17:15:58.454Z,82.40
2018-11-21T17:18:28.091Z,82.10
2018-11-21T17:20:56.834Z,81.50
2018-11-21T17:23:25.530Z,81.20
2018-11-21T17:25:54.894Z,81.30
2018-11-21T17:28:24.080Z,81.00
2018-11-21T17:30:52.467Z,81.70
2018-11-21T17:33:22.376Z,81.80
2018-11-21T17:35:51.766Z,82.40
2018-11-21T17:38:21.362Z,82.70
2018-11-21T17:40:50.180Z,82.10
2018-11-21T17:43:19.103Z,81.40
2018-11-21T17:45:47.880Z,81.60
2018-11-21T17:48:17.516Z,82.70
2018-11-21T17:50:48.802Z,83.20
2018-11-21T17:53:18.376Z,83.40
2018-11-21T17:55:46.799Z,82.40
2018-11-21T17:58:16.182Z,82.40
2018-11-21T18:00:45.337Z,81.40
2018-11-21T18:03:15.050Z,81.40
2018-11-21T18:05:44.188Z,81.30
2018-11-21T18:08:13.789Z,81.40
2018-11-21T18:10:42.294Z,81.80
2018-11-21T18:13:10.592Z,81.40
2018-11-21T18:15:40.113Z,81.20
2018-11-21T18:18:08.706Z,80.30
2018-11-21T18:20:37.090Z,81.00
